createdAt,value
2019-04-23T00:01:29.494Z,27.20
2019-04-23T00:03:58.401Z,27.70
2019-04-23T00:06:47.604Z,27.70
2019-04-23T00:09:07.416Z,27.90
2019-04-23T00:16:36.409Z,27.90
2019-04-23T00:18:56.062Z,27.60
2019-04-23T00:21:42.601Z,28.00
2019-04-23T00:24:53.290Z,28.10
2019-04-23T00:27:10.190Z,28.10
2019-04-23T00:29:40.212Z,27.40
2019-04-23T00:32:04.826Z,28.10
2019-04-23T00:34:33.334Z,28.20
2019-04-23T00:37:06.494Z,28.40
2019-04-23T00:39:37.585Z,27.70
2019-04-23T00:42:12.049Z,28.20
2019-04-23T00:44:41.047Z,28.30
2019-04-23T00:47:01.329Z,28.40
2019-04-23T00:49:30.958Z,27.70
2019-04-23T00:52:09.417Z,28.40
2019-04-23T00:54:34.213Z,28.50
2019-04-23T00:57:07.335Z,28.50
2019-04-23T00:59:41.171Z,27.80
2019-04-23T01:02:02.704Z,28.40
2019-04-23T01:04:41.881Z,28.40
2019-04-23T01:07:04.429Z,28.50
2019-04-23T01:09:40.811Z,27.90
2019-04-23T01:12:07.433Z,28.50
2019-04-23T01:14:32.550Z,28.60
2019-04-23T01:17:18.570Z,28.60
2019-04-23T01:19:48.396Z,28.00
2019-04-23T01:21:53.717Z,28.50
2019-04-23T01:24:28.772Z,28.50
2019-04-23T01:27:51.383Z,28.50
2019-04-23T01:35:15.209Z,28.50
2019-04-23T01:37:37.028Z,28.60
2019-04-23T01:40:06.000Z,28.00
2019-04-23T01:42:40.663Z,28.60
2019-04-23T01:45:06.976Z,28.70
2019-04-23T01:47:43.824Z,28.50
2019-04-23T01:50:27.964Z,28.10
2019-04-23T01:52:50.776Z,28.70
2019-04-23T01:55:08.248Z,28.70
2019-04-23T01:57:37.764Z,28.70
2019-04-23T02:00:12.274Z,28.10
2019-04-23T02:02:44.315Z,28.30
2019-04-23T02:07:45.604Z,29.10
2019-04-23T02:10:16.755Z,28.20
2019-04-23T02:12:42.261Z,28.80
2019-04-23T02:15:13.820Z,29.00
2019-04-23T02:17:38.351Z,28.90
2019-04-23T02:23:04.921Z,29.00
2019-04-23T02:25:30.347Z,28.90
2019-04-23T02:27:57.945Z,28.80
2019-04-23T02:30:40.944Z,28.50
2019-04-23T02:32:59.450Z,29.10
2019-04-23T02:38:00.314Z,29.00
2019-04-23T02:40:32.740Z,28.50
2019-04-23T02:48:08.915Z,29.10
2019-04-23T02:52:57.618Z,29.00
2019-04-23T02:55:26.734Z,29.00
2019-04-23T02:58:00.791Z,29.00
2019-04-23T03:00:28.764Z,28.70
2019-04-23T03:03:01.235Z,29.20
2019-04-23T03:05:24.933Z,29.20
2019-04-23T03:07:54.139Z,29.20
2019-04-23T03:10:32.202Z,28.70
2019-04-23T03:13:19.723Z,29.20
2019-04-23T03:15:39.242Z,29.20
2019-04-23T03:18:20.589Z,29.20
2019-04-23T03:25:59.376Z,29.30
2019-04-23T03:28:37.657Z,29.20
2019-04-23T03:32:30.410Z,28.90
2019-04-23T03:38:37.993Z,29.10
2019-04-23T03:41:06.993Z,29.10
2019-04-23T03:43:34.098Z,29.50
2019-04-23T03:48:34.092Z,29.60
2019-04-23T03:50:53.376Z,29.40
2019-04-23T03:56:05.173Z,29.20
2019-04-23T04:04:20.300Z,29.80
2019-04-23T04:06:05.505Z,29.80
2019-04-23T04:08:29.188Z,29.90
2019-04-23T04:11:14.240Z,29.50
2019-04-23T04:13:40.750Z,30.00
2019-04-23T04:18:38.679Z,29.90
2019-04-23T04:21:09.600Z,29.70
2019-04-23T04:26:05.267Z,30.00
2019-04-23T04:31:03.615Z,29.80
2019-04-23T04:33:49.086Z,30.20
2019-04-23T04:36:14.356Z,30.10
2019-04-23T04:38:42.353Z,30.20
2019-04-23T04:41:13.883Z,29.90
2019-04-23T04:43:41.651Z,30.30
2019-04-23T04:46:35.103Z,30.30
2019-04-23T04:51:19.361Z,30.00
2019-04-23T04:56:16.664Z,30.30
2019-04-23T04:58:56.429Z,30.20
2019-04-23T05:03:29.648Z,30.40
2019-04-23T05:06:16.213Z,30.40
2019-04-23T05:08:58.546Z,30.30
2019-04-23T05:16:06.436Z,30.40
2019-04-23T05:18:58.046Z,30.40
2019-04-23T05:21:22.934Z,30.00
2019-04-23T05:23:47.615Z,30.50
2019-04-23T05:26:20.894Z,30.50
2019-04-23T05:28:55.590Z,30.60
2019-04-23T05:31:18.641Z,30.30
2019-04-23T05:33:56.871Z,30.60
2019-04-23T05:36:34.411Z,30.60
2019-04-23T05:39:12.264Z,30.70
2019-04-23T05:41:27.067Z,30.20
2019-04-23T05:46:29.449Z,30.90
2019-04-23T05:48:57.975Z,30.80
2019-04-23T05:51:32.130Z,30.50
2019-04-23T05:56:21.365Z,31.00
2019-04-23T05:58:53.037Z,30.90
2019-04-23T06:04:04.028Z,30.30
2019-04-23T06:14:05.271Z,30.20
2019-04-23T06:16:30.946Z,30.50
2019-04-23T06:19:03.014Z,30.90
2019-04-23T06:21:33.935Z,30.50
2019-04-23T06:24:03.417Z,30.90
2019-04-23T06:28:59.057Z,30.70
2019-04-23T06:31:30.807Z,30.40
2019-04-23T06:34:10.868Z,30.20
2019-04-23T06:39:06.716Z,30.70
2019-04-23T06:41:29.139Z,30.40
2019-04-23T06:49:18.114Z,30.60
2019-04-23T06:54:12.185Z,30.50
2019-04-23T06:56:54.358Z,30.60
2019-04-23T06:59:12.844Z,30.00
2019-04-23T07:01:56.308Z,30.50
2019-04-23T07:04:17.332Z,30.40
2019-04-23T07:06:46.835Z,30.50
2019-04-23T07:11:39.043Z,30.50
2019-04-23T07:14:12.904Z,30.40
2019-04-23T07:16:48.358Z,30.40
2019-04-23T07:19:26.823Z,30.30
2019-04-23T07:21:42.093Z,30.20
2019-04-23T07:26:42.453Z,30.20
2019-04-23T07:29:15.317Z,29.90
2019-04-23T07:31:50.139Z,29.90
2019-04-23T07:34:12.377Z,30.10
2019-04-23T07:36:48.014Z,30.10
2019-04-23T07:39:24.571Z,29.80
2019-04-23T07:44:54.495Z,29.80
2019-04-23T07:47:20.363Z,30.00
2019-04-23T07:49:48.888Z,29.70
2019-04-23T07:54:58.747Z,30.10
2019-04-23T07:57:19.914Z,30.00
2019-04-23T07:59:56.157Z,29.70
2019-04-23T08:02:24.118Z,30.00
2019-04-23T08:05:13.099Z,29.70
2019-04-23T08:07:23.026Z,30.00
2019-04-23T08:09:53.615Z,29.70
2019-04-23T08:14:56.611Z,30.00
2019-04-23T08:17:20.995Z,29.90
2019-04-23T08:19:56.173Z,29.60
2019-04-23T08:25:15.710Z,29.90
2019-04-23T08:30:17.456Z,29.40
2019-04-23T08:32:28.023Z,29.70
2019-04-23T08:35:07.303Z,29.80
2019-04-23T08:40:15.123Z,29.60
2019-04-23T08:42:45.659Z,29.80
2019-04-23T08:45:22.088Z,29.80
2019-04-23T08:47:51.271Z,29.80
2019-04-23T08:50:21.684Z,29.50
2019-04-23T08:52:54.009Z,29.70
2019-04-23T08:55:32.542Z,29.80
2019-04-23T08:57:47.104Z,29.70
2019-04-23T09:00:24.816Z,29.40
2019-04-23T09:03:14.773Z,29.80
2019-04-23T09:05:30.256Z,29.70
2019-04-23T09:08:00.031Z,29.50
2019-04-23T09:10:32.522Z,29.00
2019-04-23T09:13:14.445Z,29.30
2019-04-23T09:15:33.052Z,29.30
2019-04-23T09:17:57.867Z,29.30
2019-04-23T09:20:30.987Z,29.00
2019-04-23T09:22:50.351Z,29.10
2019-04-23T09:25:31.894Z,29.20
2019-04-23T09:27:54.412Z,29.10
2019-04-23T09:30:26.860Z,28.90
2019-04-23T09:33:00.053Z,29.10
2019-04-23T09:38:27.685Z,29.20
2019-04-23T09:43:48.328Z,29.20
2019-04-23T09:46:23.838Z,29.20
2019-04-23T09:48:58.200Z,29.20
2019-04-23T09:51:24.344Z,28.70
2019-04-23T09:53:56.273Z,28.90
2019-04-23T09:56:27.216Z,28.80
2019-04-23T09:58:51.844Z,28.80
2019-04-23T10:01:27.829Z,28.30
2019-04-23T10:03:43.067Z,28.60
2019-04-23T10:06:09.690Z,28.70
2019-04-23T10:08:36.418Z,28.70
2019-04-23T10:11:02.936Z,28.30
2019-04-23T10:13:31.767Z,28.70
2019-04-23T10:16:00.252Z,28.80
2019-04-23T10:18:29.184Z,28.70
2019-04-23T10:20:59.342Z,28.50
2019-04-23T10:23:29.394Z,28.80
2019-04-23T10:25:58.298Z,28.80
2019-04-23T10:28:29.638Z,28.70
2019-04-23T10:30:58.715Z,28.30
2019-04-23T10:33:27.650Z,28.60
2019-04-23T10:36:02.647Z,28.70
2019-04-23T10:38:28.170Z,28.70
2019-04-23T10:40:58.026Z,28.50
2019-04-23T10:43:28.303Z,28.60
2019-04-23T10:46:20.468Z,28.60
2019-04-23T10:49:13.390Z,28.60
2019-04-23T10:54:18.188Z,28.60
2019-04-23T10:56:41.075Z,28.60
2019-04-23T10:59:12.275Z,28.50
2019-04-23T11:01:45.546Z,28.50
2019-04-23T11:04:38.524Z,28.60
2019-04-23T11:06:47.126Z,28.60
2019-04-23T11:09:33.013Z,28.40
2019-04-23T11:11:52.552Z,28.60
2019-04-23T11:14:24.889Z,28.70
2019-04-23T11:19:27.695Z,28.20
2019-04-23T11:21:56.099Z,28.40
2019-04-23T11:24:32.504Z,28.40
2019-04-23T11:26:49.572Z,28.40
2019-04-23T11:29:30.121Z,28.20
2019-04-23T11:31:58.225Z,28.40
2019-04-23T11:34:34.611Z,28.50
2019-04-23T11:39:26.766Z,28.20
2019-04-23T11:42:01.088Z,28.40
2019-04-23T11:44:31.482Z,28.50
2019-04-23T11:49:46.249Z,28.20
2019-04-23T11:52:05.582Z,28.40
2019-04-23T11:54:24.211Z,28.30
2019-04-23T11:59:31.738Z,28.20
2019-04-23T12:02:07.435Z,28.40
2019-04-23T12:10:23.685Z,28.20
2019-04-23T12:15:21.066Z,28.30
2019-04-23T12:17:47.093Z,28.30
2019-04-23T12:22:50.994Z,28.30
2019-04-23T12:28:04.759Z,28.20
2019-04-23T12:32:56.590Z,28.40
2019-04-23T12:35:21.432Z,28.40
2019-04-23T12:43:07.659Z,28.40
2019-04-23T12:45:33.422Z,28.20
2019-04-23T12:53:07.101Z,28.10
2019-04-23T12:58:03.522Z,28.10
2019-04-23T13:00:30.930Z,27.90
2019-04-23T13:02:59.389Z,28.30
2019-04-23T13:05:31.392Z,28.10
2019-04-23T13:08:02.065Z,28.20
2019-04-23T13:10:37.598Z,27.90
2019-04-23T13:13:18.884Z,28.20
2019-04-23T13:15:48.603Z,28.30
2019-04-23T13:18:03.843Z,28.40
2019-04-23T13:20:32.161Z,28.00
2019-04-23T13:28:17.354Z,28.40
2019-04-23T13:30:49.545Z,28.10
2019-04-23T13:33:20.809Z,28.80
2019-04-23T13:35:54.956Z,28.50
2019-04-23T13:43:30.363Z,28.60
2019-04-23T13:48:15.189Z,28.60
2019-04-23T13:51:06.691Z,28.30
2019-04-23T13:53:40.760Z,28.70
2019-04-23T13:55:45.571Z,28.70
2019-04-23T13:58:34.430Z,28.90
2019-04-23T14:01:01.157Z,28.60
2019-04-23T14:03:30.679Z,29.00
2019-04-23T14:06:05.354Z,29.00
2019-04-23T14:08:41.788Z,29.10
2019-04-23T14:10:55.828Z,28.90
2019-04-23T14:16:22.811Z,29.40
2019-04-23T14:21:06.023Z,28.90
2019-04-23T14:26:17.001Z,29.40
2019-04-23T14:28:35.517Z,29.50
2019-04-23T14:31:06.821Z,29.30
2019-04-23T14:33:46.641Z,29.50
2019-04-23T14:36:19.594Z,29.50
2019-04-23T14:41:09.604Z,29.30
2019-04-23T14:43:42.733Z,29.70
2019-04-23T14:51:13.465Z,29.40
2019-04-23T14:53:40.771Z,29.70
2019-04-23T14:56:09.726Z,29.70
2019-04-23T15:03:46.896Z,29.70
2019-04-23T15:08:50.110Z,29.70
2019-04-23T15:13:44.517Z,29.70
2019-04-23T15:16:20.929Z,29.70
2019-04-23T15:19:02.677Z,29.70
2019-04-23T15:21:37.629Z,29.40
2019-04-23T15:24:00.195Z,29.70
2019-04-23T15:27:22.384Z,29.60
2019-04-23T15:28:29.072Z,29.60
2019-04-23T15:33:57.208Z,29.50
2019-04-23T15:39:02.430Z,29.50
2019-04-23T15:41:23.427Z,29.10
2019-04-23T15:44:02.000Z,29.40
2019-04-23T15:46:25.359Z,29.50
2019-04-23T15:49:01.220Z,29.60
2019-04-23T15:51:30.957Z,29.20
2019-04-23T15:53:52.911Z,29.60
2019-04-23T15:56:29.223Z,29.60
2019-04-23T15:59:07.049Z,29.70
2019-04-23T16:01:31.962Z,29.30
2019-04-23T16:03:24.556Z,29.60
2019-04-23T16:05:53.161Z,29.30
2019-04-23T16:09:00.942Z,29.60
2019-04-23T16:11:41.214Z,29.20
2019-04-23T16:16:41.247Z,29.70
2019-04-23T16:19:07.242Z,29.70
2019-04-23T16:21:51.748Z,29.40
2019-04-23T16:24:12.678Z,29.70
2019-04-23T16:29:25.860Z,29.50
2019-04-23T16:31:39.824Z,29.70
2019-04-23T16:36:39.834Z,29.80
2019-04-23T16:39:12.172Z,29.90
2019-04-23T16:41:51.668Z,29.80
2019-04-23T16:44:16.895Z,29.90
2019-04-23T16:46:39.187Z,29.80
2019-04-23T16:51:38.161Z,29.90
2019-04-23T16:54:15.233Z,30.00
2019-04-23T16:57:02.392Z,30.00
2019-04-23T17:01:48.916Z,30.00
2019-04-23T17:04:18.204Z,29.90
2019-04-23T17:06:44.186Z,30.20
2019-04-23T17:09:37.077Z,29.90
2019-04-23T17:11:41.800Z,30.10
2019-04-23T17:14:17.846Z,30.20
2019-04-23T17:16:38.281Z,30.30
2019-04-23T17:19:19.260Z,30.00
2019-04-23T17:21:47.514Z,30.40
2019-04-23T17:24:21.188Z,30.60
2019-04-23T17:26:46.463Z,30.50
2019-04-23T17:31:38.267Z,30.50
2019-04-23T17:34:24.409Z,30.70
2019-04-23T17:39:27.068Z,30.30
2019-04-23T17:42:18.505Z,30.90
2019-04-23T17:44:45.595Z,30.90
2019-04-23T17:47:10.233Z,31.10
2019-04-23T17:49:41.677Z,30.50
2019-04-23T17:52:14.314Z,31.20
2019-04-23T17:54:49.940Z,31.30
2019-04-23T17:57:24.321Z,31.40
2019-04-23T18:04:57.773Z,31.80
2019-04-23T18:07:31.974Z,31.80
2019-04-23T18:09:58.292Z,31.20
2019-04-23T18:12:37.207Z,32.00
2019-04-23T18:14:57.284Z,32.00
2019-04-23T18:17:32.943Z,32.00
2019-04-23T18:20:06.627Z,31.50
2019-04-23T18:25:05.750Z,32.10
2019-04-23T18:27:31.405Z,32.20
2019-04-23T18:30:09.958Z,31.70
2019-04-23T18:32:40.628Z,32.40
2019-04-23T18:35:19.873Z,32.30
2019-04-23T18:37:35.961Z,32.40
2019-04-23T18:40:06.818Z,31.80
2019-04-23T18:42:46.362Z,31.80
2019-04-23T18:45:20.568Z,32.50
2019-04-23T18:47:47.439Z,32.50
2019-04-23T18:50:17.474Z,32.00
2019-04-23T18:55:14.565Z,32.60
2019-04-23T18:57:48.570Z,32.70
2019-04-23T19:00:21.984Z,32.10
2019-04-23T19:02:53.731Z,32.80
2019-04-23T19:08:10.565Z,32.80
2019-04-23T19:10:50.845Z,32.30
2019-04-23T19:13:24.702Z,33.00
2019-04-23T19:15:42.322Z,33.10
2019-04-23T19:18:22.245Z,33.00
2019-04-23T19:23:25.560Z,33.10
2019-04-23T19:25:44.172Z,33.10
2019-04-23T19:28:34.548Z,33.20
2019-04-23T19:30:53.871Z,32.70
2019-04-23T19:33:29.070Z,33.30
2019-04-23T19:36:11.485Z,33.20
2019-04-23T19:38:29.155Z,33.30
2019-04-23T19:41:00.658Z,32.90
2019-04-23T19:43:41.824Z,33.50
2019-04-23T19:46:03.923Z,33.40
2019-04-23T19:48:36.098Z,33.40
2019-04-23T19:56:08.851Z,33.60
2019-04-23T19:58:39.732Z,33.60
2019-04-23T20:01:12.116Z,33.20
2019-04-23T20:03:35.781Z,33.70
2019-04-23T20:06:05.905Z,33.80
2019-04-23T20:08:48.602Z,33.90
2019-04-23T20:10:57.428Z,33.40
2019-04-23T20:13:41.136Z,34.00
2019-04-23T20:18:41.548Z,34.10
2019-04-23T20:23:43.170Z,34.60
2019-04-23T20:29:16.126Z,34.20
2019-04-23T20:31:44.983Z,34.20
2019-04-23T20:39:12.164Z,34.40
2019-04-23T20:42:02.367Z,34.00
2019-04-23T20:44:23.642Z,34.50
2019-04-23T20:46:51.733Z,34.60
2019-04-23T20:49:21.417Z,34.20
2019-04-23T20:54:18.293Z,34.60
2019-04-23T20:57:02.093Z,34.70
2019-04-23T20:59:27.068Z,34.80
2019-04-23T21:02:06.372Z,34.70
2019-04-23T21:04:39.754Z,34.70
2019-04-23T21:07:09.991Z,34.80
2019-04-23T21:17:10.249Z,35.00
2019-04-23T21:19:50.771Z,34.30
2019-04-23T21:24:42.753Z,35.20
2019-04-23T21:27:11.067Z,35.20
2019-04-23T21:29:49.290Z,34.60
2019-04-23T21:32:16.313Z,35.20
2019-04-23T21:34:46.878Z,35.30
2019-04-23T21:37:39.524Z,35.30
2019-04-23T21:40:14.044Z,34.80
2019-04-23T21:42:57.251Z,35.50
2019-04-23T21:45:14.152Z,35.50
2019-04-23T21:50:25.228Z,35.00
2019-04-23T21:52:58.235Z,35.70
2019-04-23T21:55:20.563Z,35.90
2019-04-23T21:58:01.365Z,35.90
2019-04-23T22:00:14.446Z,35.20
2019-04-23T22:02:54.063Z,35.80
2019-04-23T22:05:28.411Z,35.60
2019-04-23T22:07:57.831Z,36.10
2019-04-23T22:10:19.595Z,35.40
2019-04-23T22:13:04.068Z,36.10
2019-04-23T22:15:19.967Z,36.20
2019-04-23T22:17:49.593Z,36.20
2019-04-23T22:20:34.771Z,35.60
2019-04-23T22:23:05.106Z,36.30
2019-04-23T22:25:34.805Z,36.40
2019-04-23T22:27:54.986Z,36.40
2019-04-23T22:30:30.381Z,35.70
2019-04-23T22:35:23.700Z,36.40
2019-04-23T22:38:09.105Z,36.50
2019-04-23T22:40:27.862Z,36.00
2019-04-23T22:45:27.173Z,36.50
2019-04-23T22:50:38.500Z,36.10
2019-04-23T22:53:02.727Z,36.80
2019-04-23T22:55:32.785Z,36.70
2019-04-23T22:58:04.751Z,36.80
2019-04-23T23:00:25.552Z,36.20
2019-04-23T23:03:17.414Z,36.80
2019-04-23T23:05:56.329Z,36.90
2019-04-23T23:08:13.384Z,36.80
2019-04-23T23:10:44.192Z,36.30
2019-04-23T23:13:16.510Z,36.90
2019-04-23T23:15:51.489Z,36.90
2019-04-23T23:18:17.102Z,36.90
2019-04-23T23:20:47.794Z,36.30
2019-04-23T23:23:17.981Z,36.80
2019-04-23T23:35:46.940Z,36.90
2019-04-23T23:45:55.371Z,36.80
2019-04-23T23:48:18.703Z,36.80
2019-04-23T23:50:54.642Z,36.40
2019-04-23T23:53:23.327Z,36.90
2019-04-23T23:55:58.513Z,36.90
2019-04-23T23:58:26.983Z,37.10
